Sunday, October 22, 2017, 8:45 PM EDT
Back to Local

KIJD, Willimantic Windham Airport

Location: North Windham, CT, United States Lat: 41.75
Local Time: 8:45 PM EDT ( 0:45 GMT) Lon: -72.183
Time Zone: US/Eastern Elev: 246 ft

Show me the last for .
Show Coded

Time T Td Feel RH Dir Speed Gust Alt SLP Vis Weather Sky Remarks
2017-10-22 19:52 60 50 - 69 - Calm - 30.38 30.38 10 CLR 6-hr Min Temp (8pm): 59.0°F
6-hr Max Temp (8pm): 81.0°F
2017-10-22 18:52 62 49 - 62 - Calm - 30.37 30.37 10 CLR None
2017-10-22 17:52 72 44 - 36 170° 3 - 30.37 30.37 10 CLR None
2017-10-22 16:52 75 47 - 36 160° 5 - 30.36 30.36 10 CLR None
2017-10-22 15:52 78 43 - 28 180° 6 - 30.36 30.35 10 CLR None
2017-10-22 14:52 79 38 - 22 - Calm - 30.36 30.35 10 CLR None
2017-10-22 13:52 80 33 - 18 200° 6 - 30.36 30.36 10 CLR 6-hr Min Temp (2pm): 44.1°F
6-hr Max Temp (2pm): 81.0°F
2017-10-22 12:52 77 45 - 32 190° 5 - 30.39 30.38 10 CLR None
2017-10-22 11:52 72 46 - 39 - Calm - 30.40 30.40 10 CLR None
2017-10-22 10:52 64 49 - 57 - Calm - 30.42 30.42 10 CLR None
2017-10-22 09:52 55 48 - 77 - Calm - 30.43 30.43 10 CLR None
2017-10-22 08:52 49 45 48 86 20° 3 - 30.43 30.43 10 CLR None
2017-10-22 07:52 44 42 - 92 - Calm - 30.42 30.42 10 CLR 6-hr Min Temp (8am): 42.1°F
6-hr Max Temp (8am): 46.0°F
2017-10-22 06:52 42 41 - 95 - Calm - 30.40 30.40 10 CLR None
2017-10-22 05:52 44 43 - 95 - Calm - 30.39 30.39 10 CLR None
2017-10-22 04:52 44 42 - 92 - Calm - 30.37 30.37 10 CLR None
2017-10-22 03:52 43 41 - 92 - Calm - 30.36 30.36 10 CLR None
2017-10-22 02:52 43 41 - 92 - Calm - 30.36 30.35 10 CLR None
2017-10-22 01:52 45 42 - 89 - Calm - 30.36 30.36 10 CLR 6-hr Min Temp (2am): 45.0°F
6-hr Max Temp (2am): 59.0°F
2017-10-22 00:52 47 44 - 89 - Calm - 30.36 30.36 10 CLR 24-hr Min Temp (1am): 37.9°F
24-hr Max Temp (1am): 79.0°F
2017-10-21 23:52 48 45 - 89 - Calm - 30.36 30.35 10 CLR None
2017-10-21 22:52 50 47 - 89 - Calm - 30.36 30.36 10 CLR None
2017-10-21 21:52 51 47 - 85 - Calm - 30.35 30.35 10 CLR None
2017-10-21 20:52 56 48 - 74 60° 3 - 30.34 30.34 10 CLR None

Support USWX by starting your Amazon purchase here.